Terminal Aerodrome Forecast
Issued by NWS Sioux Falls, SD

Home | Current Version | Previous Version | Text Only | Print | Product List | Glossary On
Versions: 1 2 3 4 5 6 7 8 9 10 11 12 13
601
FTUS43 KFSD 271629 AAD
TAFFSD
TAF AMD
KFSD 271629Z 2716/2812 16005KT P6SM OVC016
     FM271800 17007KT P6SM BKN035
     FM272000 18009KT P6SM SCT035
     FM280200 16005KT P6SM SCT035=

USA.gov is the U.S. government's official web portal to all federal, state and local government web resources and services.